sensor_id;sensor_type;location;lat;lon;timestamp;pressure;altitude;pressure_sealevel;temperature;humidity
8501;BME280;4288;48.484;10.024;2022-10-16T00:01:14;95569.50;;;17.97;91.56
8501;BME280;4288;48.484;10.024;2022-10-16T00:03:43;95564.88;;;17.98;91.38
8501;BME280;4288;48.484;10.024;2022-10-16T00:06:13;95563.00;;;17.95;91.68
8501;BME280;4288;48.484;10.024;2022-10-16T00:08:41;95560.97;;;17.99;91.81
8501;BME280;4288;48.484;10.024;2022-10-16T00:11:10;95574.91;;;17.97;91.54
8501;BME280;4288;48.484;10.024;2022-10-16T00:13:40;95579.22;;;17.95;91.86
8501;BME280;4288;48.484;10.024;2022-10-16T00:16:09;95573.75;;;17.98;91.63
8501;BME280;4288;48.484;10.024;2022-10-16T00:18:37;95576.84;;;17.97;91.49
8501;BME280;4288;48.484;10.024;2022-10-16T00:21:06;95571.09;;;17.95;91.85
8501;BME280;4288;48.484;10.024;2022-10-16T00:23:36;95582.59;;;17.99;91.77
8501;BME280;4288;48.484;10.024;2022-10-16T00:26:06;95565.69;;;17.95;91.61
8501;BME280;4288;48.484;10.024;2022-10-16T00:28:35;95579.56;;;17.97;91.53
8501;BME280;4288;48.484;10.024;2022-10-16T00:31:06;95568.00;;;17.96;91.38
8501;BME280;4288;48.484;10.024;2022-10-16T00:33:34;95581.88;;;17.98;91.51
8501;BME280;4288;48.484;10.024;2022-10-16T00:36:03;95560.38;;;17.91;91.39
8501;BME280;4288;48.484;10.024;2022-10-16T00:38:30;95568.34;;;17.98;91.70
8501;BME280;4288;48.484;10.024;2022-10-16T00:40:59;95564.88;;;17.98;91.53
8501;BME280;4288;48.484;10.024;2022-10-16T00:43:37;95567.25;;;17.96;91.43
8501;BME280;4288;48.484;10.024;2022-10-16T00:46:13;95566.56;;;17.92;91.45
8501;BME280;4288;48.484;10.024;2022-10-16T00:48:45;95574.25;;;17.93;91.65
8501;BME280;4288;48.484;10.024;2022-10-16T00:51:14;95564.63;;;17.92;91.79
8501;BME280;4288;48.484;10.024;2022-10-16T00:53:43;95570.28;;;17.98;91.87
8501;BME280;4288;48.484;10.024;2022-10-16T00:56:12;95576.84;;;17.97;91.81
8501;BME280;4288;48.484;10.024;2022-10-16T00:58:39;95576.84;;;17.97;91.56
8501;BME280;4288;48.484;10.024;2022-10-16T01:01:06;95593.84;;;17.97;91.68
8501;BME280;4288;48.484;10.024;2022-10-16T01:03:35;95594.63;;;17.98;91.70
8501;BME280;4288;48.484;10.024;2022-10-16T01:06:23;95590.38;;;17.97;91.64
8501;BME280;4288;48.484;10.024;2022-10-16T01:09:11;95589.63;;;17.96;91.49
8501;BME280;4288;48.484;10.024;2022-10-16T01:11:48;95586.50;;;17.98;91.55
8501;BME280;4288;48.484;10.024;2022-10-16T01:14:25;95583.03;;;17.97;91.41
8501;BME280;4288;48.484;10.024;2022-10-16T01:17:01;95586.50;;;17.98;91.17
8501;BME280;4288;48.484;10.024;2022-10-16T01:20:07;95600.03;;;17.98;91.44
8501;BME280;4288;48.484;10.024;2022-10-16T01:22:44;95597.31;;;17.98;91.40
8501;BME280;4288;48.484;10.024;2022-10-16T01:25:24;95600.47;;;17.96;91.18
8501;BME280;4288;48.484;10.024;2022-10-16T01:27:54;95600.03;;;17.98;91.52
8501;BME280;4288;48.484;10.024;2022-10-16T01:30:25;95605.44;;;17.98;91.24
8501;BME280;4288;48.484;10.024;2022-10-16T01:32:58;95594.63;;;17.98;91.38
8501;BME280;4288;48.484;10.024;2022-10-16T01:35:31;95595.78;;;17.97;91.35
8501;BME280;4288;48.484;10.024;2022-10-16T01:38:03;95595.78;;;17.97;91.59
8501;BME280;4288;48.484;10.024;2022-10-16T01:40:35;95595.38;;;17.98;91.54
8501;BME280;4288;48.484;10.024;2022-10-16T01:43:08;95590.72;;;17.99;91.39
8501;BME280;4288;48.484;10.024;2022-10-16T01:45:38;95590.72;;;17.99;91.60
8501;BME280;4288;48.484;10.024;2022-10-16T01:48:09;95588.09;;;17.95;91.42
8501;BME280;4288;48.484;10.024;2022-10-16T01:50:40;95592.34;;;17.96;91.22
8501;BME280;4288;48.484;10.024;2022-10-16T01:53:11;95592.34;;;17.96;91.45
8501;BME280;4288;48.484;10.024;2022-10-16T01:55:44;95583.47;;;17.96;91.59
8501;BME280;4288;48.484;10.024;2022-10-16T01:58:15;95589.63;;;17.96;91.67
8501;BME280;4288;48.484;10.024;2022-10-16T02:00:45;95579.22;;;17.95;91.75
8501;BME280;4288;48.484;10.024;2022-10-16T02:03:17;95582.69;;;17.95;91.44
8501;BME280;4288;48.484;10.024;2022-10-16T02:05:49;95596.56;;;17.97;91.60
8501;BME280;4288;48.484;10.024;2022-10-16T02:08:18;95592.34;;;17.96;91.27
8501;BME280;4288;48.484;10.024;2022-10-16T02:10:45;95580.75;;;17.96;91.59
8501;BME280;4288;48.484;10.024;2022-10-16T02:13:19;95583.56;;;17.92;91.33
8501;BME280;4288;48.484;10.024;2022-10-16T02:15:48;95592.34;;;17.96;91.46
8501;BME280;4288;48.484;10.024;2022-10-16T02:18:15;95588.09;;;17.95;91.58
8501;BME280;4288;48.484;10.024;2022-10-16T02:20:48;95591.56;;;17.96;91.27
8501;BME280;4288;48.484;10.024;2022-10-16T02:23:24;95596.22;;;17.95;91.57
8501;BME280;4288;48.484;10.024;2022-10-16T02:25:54;95597.81;;;17.93;91.24
8501;BME280;4288;48.484;10.024;2022-10-16T02:28:30;95597.81;;;17.93;91.47
8501;BME280;4288;48.484;10.024;2022-10-16T02:31:02;95592.94;;;17.88;91.43
8501;BME280;4288;48.484;10.024;2022-10-16T02:33:31;95609.75;;;17.95;91.30
8501;BME280;4288;48.484;10.024;2022-10-16T02:35:59;95602.06;;;17.94;91.48
8501;BME280;4288;48.484;10.024;2022-10-16T02:38:27;95616.34;;;17.94;91.42
8501;BME280;4288;48.484;10.024;2022-10-16T02:40:56;95611.00;;;17.91;91.77
8501;BME280;4288;48.484;10.024;2022-10-16T02:43:25;95609.84;;;17.92;91.53
8501;BME280;4288;48.484;10.024;2022-10-16T02:45:52;95607.47;;;17.94;91.57
8501;BME280;4288;48.484;10.024;2022-10-16T02:48:19;95605.53;;;17.94;91.11
8501;BME280;4288;48.484;10.024;2022-10-16T02:50:47;95607.47;;;17.94;91.35
8501;BME280;4288;48.484;10.024;2022-10-16T02:53:14;95608.22;;;17.94;91.42
8501;BME280;4288;48.484;10.024;2022-10-16T02:55:41;95616.34;;;17.94;91.27
8501;BME280;4288;48.484;10.024;2022-10-16T02:58:08;95606.28;;;17.95;91.52
8501;BME280;4288;48.484;10.024;2022-10-16T03:00:37;95610.94;;;17.94;91.42
8501;BME280;4288;48.484;10.024;2022-10-16T03:03:04;95605.94;;;17.93;91.37
8501;BME280;4288;48.484;10.024;2022-10-16T03:05:31;95629.09;;;17.94;91.15
8501;BME280;4288;48.484;10.024;2022-10-16T03:07:59;95632.25;;;17.92;91.16
8501;BME280;4288;48.484;10.024;2022-10-16T03:10:26;95616.94;;;17.86;91.44
8501;BME280;4288;48.484;10.024;2022-10-16T03:12:54;95604.00;;;17.93;91.39
8501;BME280;4288;48.484;10.024;2022-10-16T03:15:21;95588.53;;;17.94;91.45
8501;BME280;4288;48.484;10.024;2022-10-16T03:17:49;95601.72;;;17.92;90.99
8501;BME280;4288;48.484;10.024;2022-10-16T03:20:16;95604.44;;;17.92;91.06
8501;BME280;4288;48.484;10.024;2022-10-16T03:22:43;95613.31;;;17.92;91.33
8501;BME280;4288;48.484;10.024;2022-10-16T03:25:11;95616.75;;;17.93;91.39
8501;BME280;4288;48.484;10.024;2022-10-16T03:27:38;95608.63;;;17.93;91.27
8501;BME280;4288;48.484;10.024;2022-10-16T03:30:06;95612.53;;;17.92;91.42
8501;BME280;4288;48.484;10.024;2022-10-16T03:32:34;95610.59;;;17.92;91.22
8501;BME280;4288;48.484;10.024;2022-10-16T03:35:03;95612.53;;;17.92;90.93
8501;BME280;4288;48.484;10.024;2022-10-16T03:37:30;95604.44;;;17.92;91.41
8501;BME280;4288;48.484;10.024;2022-10-16T03:39:57;95609.06;;;17.91;91.07
8501;BME280;4288;48.484;10.024;2022-10-16T03:42:25;95606.38;;;17.91;91.42
8501;BME280;4288;48.484;10.024;2022-10-16T03:44:52;95605.59;;;17.91;91.31
8501;BME280;4288;48.484;10.024;2022-10-16T03:47:19;95599.44;;;17.90;90.96
8501;BME280;4288;48.484;10.024;2022-10-16T03:49:47;95615.25;;;17.92;91.01
8501;BME280;4288;48.484;10.024;2022-10-16T03:52:16;95607.56;;;17.90;91.24
8501;BME280;4288;48.484;10.024;2022-10-16T03:54:43;95611.00;;;17.91;91.24
8501;BME280;4288;48.484;10.024;2022-10-16T03:57:10;95613.72;;;17.91;91.15
8501;BME280;4288;48.484;10.024;2022-10-16T03:59:37;95609.50;;;17.90;91.04
8501;BME280;4288;48.484;10.024;2022-10-16T04:02:05;95613.72;;;17.91;90.84
8501;BME280;4288;48.484;10.024;2022-10-16T04:04:32;95615.69;;;17.90;91.17
8501;BME280;4288;48.484;10.024;2022-10-16T04:06:59;95614.91;;;17.90;91.20
8501;BME280;4288;48.484;10.024;2022-10-16T04:09:27;95622.25;;;17.89;91.08
8501;BME280;4288;48.484;10.024;2022-10-16T04:11:54;95625.72;;;17.90;91.25
8501;BME280;4288;48.484;10.024;2022-10-16T04:14:22;95628.44;;;17.90;91.01
8501;BME280;4288;48.484;10.024;2022-10-16T04:16:49;95623.44;;;17.88;90.93
8501;BME280;4288;48.484;10.024;2022-10-16T04:19:16;95632.28;;;17.89;90.90
8501;BME280;4288;48.484;10.024;2022-10-16T04:21:43;95627.66;;;17.89;90.81
8501;BME280;4288;48.484;10.024;2022-10-16T04:24:10;95629.59;;;17.89;91.04
8501;BME280;4288;48.484;10.024;2022-10-16T04:26:39;95636.97;;;17.88;91.03
8501;BME280;4288;48.484;10.024;2022-10-16T04:29:06;95643.13;;;17.89;90.71
8501;BME280;4288;48.484;10.024;2022-10-16T04:31:33;95631.56;;;17.88;91.11
8501;BME280;4288;48.484;10.024;2022-10-16T04:34:01;95634.66;;;17.87;91.10
8501;BME280;4288;48.484;10.024;2022-10-16T04:36:28;95640.06;;;17.87;90.82
8501;BME280;4288;48.484;10.024;2022-10-16T04:38:55;95643.53;;;17.87;91.05
8501;BME280;4288;48.484;10.024;2022-10-16T04:41:22;95643.97;;;17.86;90.73
8501;BME280;4288;48.484;10.024;2022-10-16T04:43:50;95638.13;;;17.87;90.76
8501;BME280;4288;48.484;10.024;2022-10-16T04:46:17;95634.66;;;17.87;90.77
8501;BME280;4288;48.484;10.024;2022-10-16T04:48:45;95638.13;;;17.87;90.60
8501;BME280;4288;48.484;10.024;2022-10-16T04:51:12;95645.91;;;17.85;90.86
8501;BME280;4288;48.484;10.024;2022-10-16T04:53:40;95650.88;;;17.87;90.69
8501;BME280;4288;48.484;10.024;2022-10-16T04:56:07;95639.34;;;17.86;90.80
8501;BME280;4288;48.484;10.024;2022-10-16T04:58:34;95645.47;;;17.87;90.71
8501;BME280;4288;48.484;10.024;2022-10-16T05:01:03;95645.47;;;17.87;90.76
8501;BME280;4288;48.484;10.024;2022-10-16T05:03:30;95660.97;;;17.86;90.83
8501;BME280;4288;48.484;10.024;2022-10-16T05:05:57;95646.84;;;17.78;90.51
8501;BME280;4288;48.484;10.024;2022-10-16T05:08:24;95648.63;;;17.85;90.81
8501;BME280;4288;48.484;10.024;2022-10-16T05:10:51;95654.78;;;17.86;90.51
8501;BME280;4288;48.484;10.024;2022-10-16T05:13:18;95650.25;;;17.83;90.56
8501;BME280;4288;48.484;10.024;2022-10-16T05:15:47;95654.78;;;17.86;90.76
8501;BME280;4288;48.484;10.024;2022-10-16T05:18:16;95644.84;;;17.83;90.67
8501;BME280;4288;48.484;10.024;2022-10-16T05:20:44;95641.69;;;17.84;90.59
8501;BME280;4288;48.484;10.024;2022-10-16T05:23:11;95640.94;;;17.84;90.54
8501;BME280;4288;48.484;10.024;2022-10-16T05:25:38;95630.13;;;17.84;90.85
8501;BME280;4288;48.484;10.024;2022-10-16T05:28:05;95623.94;;;17.83;90.42
8501;BME280;4288;48.484;10.024;2022-10-16T05:30:32;95629.34;;;17.83;90.37
8501;BME280;4288;48.484;10.024;2022-10-16T05:33:00;95635.53;;;17.84;90.40
8501;BME280;4288;48.484;10.024;2022-10-16T05:35:28;95646.34;;;17.84;90.35
8501;BME280;4288;48.484;10.024;2022-10-16T05:37:55;95640.16;;;17.83;90.37
8501;BME280;4288;48.484;10.024;2022-10-16T05:40:22;95646.34;;;17.84;90.37
8501;BME280;4288;48.484;10.024;2022-10-16T05:42:50;95642.88;;;17.83;90.38
8501;BME280;4288;48.484;10.024;2022-10-16T05:45:21;95653.69;;;17.83;90.26
8501;BME280;4288;48.484;10.024;2022-10-16T05:47:48;95658.34;;;17.83;90.56
8501;BME280;4288;48.484;10.024;2022-10-16T05:50:15;95662.22;;;17.82;90.20
8501;BME280;4288;48.484;10.024;2022-10-16T05:52:43;95680.72;;;17.83;90.59
8501;BME280;4288;48.484;10.024;2022-10-16T05:55:10;95671.88;;;17.83;90.14
8501;BME280;4288;48.484;10.024;2022-10-16T05:57:38;95675.75;;;17.82;90.09
8501;BME280;4288;48.484;10.024;2022-10-16T06:00:07;95668.41;;;17.82;90.14
8501;BME280;4288;48.484;10.024;2022-10-16T06:02:34;95677.28;;;17.83;90.28
8501;BME280;4288;48.484;10.024;2022-10-16T06:05:01;95681.91;;;17.82;90.11
8501;BME280;4288;48.484;10.024;2022-10-16T06:07:28;95680.38;;;17.81;90.34
8501;BME280;4288;48.484;10.024;2022-10-16T06:09:57;95681.91;;;17.82;90.41
8501;BME280;4288;48.484;10.024;2022-10-16T06:12:24;95684.63;;;17.82;90.40
8501;BME280;4288;48.484;10.024;2022-10-16T06:14:51;95681.16;;;17.82;90.15
8501;BME280;4288;48.484;10.024;2022-10-16T06:17:18;95693.50;;;17.83;90.40
8501;BME280;4288;48.484;10.024;2022-10-16T06:19:45;95691.97;;;17.82;90.23
8501;BME280;4288;48.484;10.024;2022-10-16T06:22:12;95698.16;;;17.82;89.97
8501;BME280;4288;48.484;10.024;2022-10-16T06:24:40;95691.19;;;17.81;89.93
8501;BME280;4288;48.484;10.024;2022-10-16T06:27:08;95691.97;;;17.82;89.82
8501;BME280;4288;48.484;10.024;2022-10-16T06:29:35;95700.09;;;17.82;90.19
8501;BME280;4288;48.484;10.024;2022-10-16T06:32:02;95703.56;;;17.82;89.86
8501;BME280;4288;48.484;10.024;2022-10-16T06:34:30;95702.00;;;17.81;89.96
8501;BME280;4288;48.484;10.024;2022-10-16T06:36:57;95700.09;;;17.82;89.77
8501;BME280;4288;48.484;10.024;2022-10-16T06:39:24;95696.28;;;17.79;89.14
8501;BME280;4288;48.484;10.024;2022-10-16T06:41:51;95702.53;;;17.76;88.57
8501;BME280;4288;48.484;10.024;2022-10-16T06:44:19;95704.47;;;17.75;88.16
8501;BME280;4288;48.484;10.024;2022-10-16T06:46:46;95713.78;;;17.74;88.17
8501;BME280;4288;48.484;10.024;2022-10-16T06:49:14;95716.47;;;17.74;88.31
8501;BME280;4288;48.484;10.024;2022-10-16T06:51:46;95715.38;;;17.72;88.69
8501;BME280;4288;48.484;10.024;2022-10-16T06:54:15;95712.31;;;17.70;88.23
8501;BME280;4288;48.484;10.024;2022-10-16T06:56:43;95726.25;;;17.68;88.70
8501;BME280;4288;48.484;10.024;2022-10-16T06:59:11;95734.81;;;17.67;88.66
8501;BME280;4288;48.484;10.024;2022-10-16T07:01:39;95739.88;;;17.65;88.64
8501;BME280;4288;48.484;10.024;2022-10-16T07:04:06;95742.22;;;17.63;88.34
8501;BME280;4288;48.484;10.024;2022-10-16T07:06:34;95740.34;;;17.60;88.62
8501;BME280;4288;48.484;10.024;2022-10-16T07:09:06;95741.88;;;17.61;88.36
8501;BME280;4288;48.484;10.024;2022-10-16T07:11:34;95753.50;;;17.58;88.68
8501;BME280;4288;48.484;10.024;2022-10-16T07:14:01;95760.47;;;17.59;88.67
8501;BME280;4288;48.484;10.024;2022-10-16T07:16:31;95761.63;;;17.58;88.61
8501;BME280;4288;48.484;10.024;2022-10-16T07:19:01;95755.78;;;17.59;88.55
8501;BME280;4288;48.484;10.024;2022-10-16T07:21:31;95758.56;;;17.56;88.67
8501;BME280;4288;48.484;10.024;2022-10-16T07:24:01;95753.25;;;17.52;88.58
8501;BME280;4288;48.484;10.024;2022-10-16T07:26:30;95767.78;;;17.58;88.74
8501;BME280;4288;48.484;10.024;2022-10-16T07:28:58;95776.69;;;17.59;88.85
8501;BME280;4288;48.484;10.024;2022-10-16T07:31:26;95769.31;;;17.59;88.66
8501;BME280;4288;48.484;10.024;2022-10-16T07:33:54;95770.84;;;17.60;88.96
8501;BME280;4288;48.484;10.024;2022-10-16T07:36:22;95766.59;;;17.59;89.43
8501;BME280;4288;48.484;10.024;2022-10-16T07:38:49;95774.72;;;17.59;89.33
8501;BME280;4288;48.484;10.024;2022-10-16T07:41:18;95773.91;;;17.62;89.50
8501;BME280;4288;48.484;10.024;2022-10-16T07:43:46;95768.06;;;17.64;89.83
8501;BME280;4288;48.484;10.024;2022-10-16T07:46:14;95785.81;;;17.65;89.66
8501;BME280;4288;48.484;10.024;2022-10-16T07:48:42;95793.50;;;17.66;89.28
8501;BME280;4288;48.484;10.024;2022-10-16T07:51:12;95790.03;;;17.66;89.32
8501;BME280;4288;48.484;10.024;2022-10-16T07:53:41;95797.72;;;17.67;89.28
8501;BME280;4288;48.484;10.024;2022-10-16T07:56:08;95802.72;;;17.69;89.21
8501;BME280;4288;48.484;10.024;2022-10-16T07:58:36;95800.75;;;17.69;89.29
8501;BME280;4288;48.484;10.024;2022-10-16T08:01:05;95796.22;;;17.66;89.07
8501;BME280;4288;48.484;10.024;2022-10-16T08:03:32;95801.63;;;17.66;89.08
8501;BME280;4288;48.484;10.024;2022-10-16T08:06:00;95808.44;;;17.71;89.19
8501;BME280;4288;48.484;10.024;2022-10-16T08:08:28;95806.50;;;17.71;89.06
8501;BME280;4288;48.484;10.024;2022-10-16T08:10:56;95811.91;;;17.71;88.90
8501;BME280;4288;48.484;10.024;2022-10-16T08:13:24;95807.28;;;17.72;88.93
8501;BME280;4288;48.484;10.024;2022-10-16T08:15:53;95806.94;;;17.70;89.17
8501;BME280;4288;48.484;10.024;2022-10-16T08:18:21;95808.13;;;17.69;89.06
8501;BME280;4288;48.484;10.024;2022-10-16T08:20:55;95813.03;;;17.74;88.93
8501;BME280;4288;48.484;10.024;2022-10-16T08:23:24;95819.94;;;17.75;89.05
8501;BME280;4288;48.484;10.024;2022-10-16T08:25:51;95816.50;;;17.74;88.92
8501;BME280;4288;48.484;10.024;2022-10-16T08:28:21;95823.44;;;17.75;88.74
8501;BME280;4288;48.484;10.024;2022-10-16T08:30:49;95827.31;;;17.74;89.13
8501;BME280;4288;48.484;10.024;2022-10-16T08:33:16;95831.97;;;17.74;88.78
8501;BME280;4288;48.484;10.024;2022-10-16T08:35:49;95828.84;;;17.75;89.10
8501;BME280;4288;48.484;10.024;2022-10-16T08:38:16;95836.94;;;17.75;89.00
8501;BME280;4288;48.484;10.024;2022-10-16T08:40:44;95835.00;;;17.76;88.78
8501;BME280;4288;48.484;10.024;2022-10-16T08:43:35;95846.59;;;17.76;88.84
8501;BME280;4288;48.484;10.024;2022-10-16T08:46:31;95847.34;;;17.77;88.96
8501;BME280;4288;48.484;10.024;2022-10-16T08:49:03;95857.00;;;17.78;88.75
8501;BME280;4288;48.484;10.024;2022-10-16T08:51:36;95851.31;;;17.72;88.96
8501;BME280;4288;48.484;10.024;2022-10-16T08:54:05;95860.47;;;17.78;88.97
8501;BME280;4288;48.484;10.024;2022-10-16T08:56:34;95849.31;;;17.76;88.96
8501;BME280;4288;48.484;10.024;2022-10-16T08:59:09;95841.25;;;17.73;88.91
8501;BME280;4288;48.484;10.024;2022-10-16T09:01:40;95857.75;;;17.78;88.76
8501;BME280;4288;48.484;10.024;2022-10-16T09:07:21;95855.78;;;17.79;88.68
8501;BME280;4288;48.484;10.024;2022-10-16T09:10:12;95851.59;;;17.78;88.64
8501;BME280;4288;48.484;10.024;2022-10-16T09:12:51;95856.56;;;17.79;88.80
8501;BME280;4288;48.484;10.024;2022-10-16T09:15:32;95857.75;;;17.78;88.68
8501;BME280;4288;48.484;10.024;2022-10-16T09:18:09;95855.09;;;17.75;88.54
8501;BME280;4288;48.484;10.024;2022-10-16T09:20:49;95862.81;;;17.76;88.75
8501;BME280;4288;48.484;10.024;2022-10-16T09:23:21;95865.09;;;17.78;88.88
8501;BME280;4288;48.484;10.024;2022-10-16T09:25:50;95867.38;;;17.79;88.58
8501;BME280;4288;48.484;10.024;2022-10-16T09:28:18;95867.38;;;17.79;88.76
8501;BME280;4288;48.484;10.024;2022-10-16T09:30:47;95872.78;;;17.79;88.48
8501;BME280;4288;48.484;10.024;2022-10-16T09:33:17;95877.50;;;17.75;88.51
8501;BME280;4288;48.484;10.024;2022-10-16T09:35:48;95872.88;;;17.76;88.63
8501;BME280;4288;48.484;10.024;2022-10-16T09:38:25;95877.06;;;17.77;88.55
8501;BME280;4288;48.484;10.024;2022-10-16T09:40:55;95892.50;;;17.80;88.76
8501;BME280;4288;48.484;10.024;2022-10-16T09:43:25;95887.06;;;17.80;88.56
8501;BME280;4288;48.484;10.024;2022-10-16T09:46:00;95890.56;;;17.81;88.69
8501;BME280;4288;48.484;10.024;2022-10-16T09:48:36;95891.28;;;17.81;88.55
8501;BME280;4288;48.484;10.024;2022-10-16T09:51:13;95894.00;;;17.81;88.65
8501;BME280;4288;48.484;10.024;2022-10-16T09:53:45;95896.69;;;17.81;88.33
8501;BME280;4288;48.484;10.024;2022-10-16T09:56:24;95894.75;;;17.82;88.54
8501;BME280;4288;48.484;10.024;2022-10-16T09:58:53;95885.19;;;17.77;87.96
8501;BME280;4288;48.484;10.024;2022-10-16T10:01:26;95896.69;;;17.81;88.59
8501;BME280;4288;48.484;10.024;2022-10-16T10:03:57;95895.53;;;17.82;88.36
8501;BME280;4288;48.484;10.024;2022-10-16T10:06:30;95897.47;;;17.82;88.57
8501;BME280;4288;48.484;10.024;2022-10-16T10:09:04;95891.72;;;17.79;88.18
8501;BME280;4288;48.484;10.024;2022-10-16T10:11:51;95888.25;;;17.79;88.54
8501;BME280;4288;48.484;10.024;2022-10-16T10:14:35;95903.66;;;17.82;88.45
8501;BME280;4288;48.484;10.024;2022-10-16T10:17:14;95897.03;;;17.83;88.46
8501;BME280;4288;48.484;10.024;2022-10-16T10:19:49;95896.31;;;17.83;88.21
8501;BME280;4288;48.484;10.024;2022-10-16T10:22:30;95889.00;;;17.79;88.54
8501;BME280;4288;48.484;10.024;2022-10-16T10:25:14;95897.03;;;17.83;88.31
8501;BME280;4288;48.484;10.024;2022-10-16T10:28:14;95899.34;;;17.85;88.46
8501;BME280;4288;48.484;10.024;2022-10-16T10:30:55;95898.25;;;17.82;88.30
8501;BME280;4288;48.484;10.024;2022-10-16T10:33:37;95890.47;;;17.84;88.38
8501;BME280;4288;48.484;10.024;2022-10-16T10:36:17;95899.34;;;17.85;88.52
8501;BME280;4288;48.484;10.024;2022-10-16T10:38:51;95894.69;;;17.85;88.25
8501;BME280;4288;48.484;10.024;2022-10-16T10:44:30;95898.94;;;17.86;88.82
8501;BME280;4288;48.484;10.024;2022-10-16T10:47:06;95902.38;;;17.87;88.67
8501;BME280;4288;48.484;10.024;2022-10-16T10:49:54;95895.47;;;17.86;88.50
8501;BME280;4288;48.484;10.024;2022-10-16T10:52:50;95890.06;;;17.86;88.56
8501;BME280;4288;48.484;10.024;2022-10-16T10:55:28;95889.34;;;17.82;88.79
8501;BME280;4288;48.484;10.024;2022-10-16T10:58:15;95892.75;;;17.86;88.80
8501;BME280;4288;48.484;10.024;2022-10-16T11:00:55;95888.13;;;17.86;88.77
8501;BME280;4288;48.484;10.024;2022-10-16T11:03:43;95879.22;;;17.86;88.78
8501;BME280;4288;48.484;10.024;2022-10-16T11:06:19;95876.53;;;17.86;88.84
8501;BME280;4288;48.484;10.024;2022-10-16T11:08:55;95881.94;;;17.86;88.68
8501;BME280;4288;48.484;10.024;2022-10-16T11:11:30;95880.00;;;17.86;89.03
8501;BME280;4288;48.484;10.024;2022-10-16T11:14:03;95870.44;;;17.82;88.84
8501;BME280;4288;48.484;10.024;2022-10-16T11:16:37;95875.41;;;17.83;88.78
8501;BME280;4288;48.484;10.024;2022-10-16T11:19:14;95877.31;;;17.86;88.98
8501;BME280;4288;48.484;10.024;2022-10-16T11:21:55;95879.22;;;17.86;88.88
8501;BME280;4288;48.484;10.024;2022-10-16T11:24:37;95875.75;;;17.85;88.87
8501;BME280;4288;48.484;10.024;2022-10-16T11:27:11;95876.09;;;17.87;88.92
8501;BME280;4288;48.484;10.024;2022-10-16T11:29:46;95865.72;;;17.86;89.15
8501;BME280;4288;48.484;10.024;2022-10-16T11:32:25;95869.63;;;17.85;88.89
8501;BME280;4288;48.484;10.024;2022-10-16T11:35:02;95875.03;;;17.85;88.79
8501;BME280;4288;48.484;10.024;2022-10-16T11:37:36;95872.97;;;17.89;88.87
8501;BME280;4288;48.484;10.024;2022-10-16T11:40:20;95866.56;;;17.83;88.73
8501;BME280;4288;48.484;10.024;2022-10-16T11:42:55;95865.63;;;17.89;89.09
8501;BME280;4288;48.484;10.024;2022-10-16T11:45:30;95870.28;;;17.89;88.81
8501;BME280;4288;48.484;10.024;2022-10-16T11:48:07;95866.41;;;17.90;89.16
8501;BME280;4288;48.484;10.024;2022-10-16T11:50:45;95869.88;;;17.90;88.84
8501;BME280;4288;48.484;10.024;2022-10-16T11:53:27;95875.28;;;17.90;88.94
8501;BME280;4288;48.484;10.024;2022-10-16T11:55:58;95877.22;;;17.90;88.86
8501;BME280;4288;48.484;10.024;2022-10-16T11:58:31;95871.81;;;17.90;88.92
8501;BME280;4288;48.484;10.024;2022-10-16T12:01:15;95869.44;;;17.92;89.13
8501;BME280;4288;48.484;10.024;2022-10-16T12:03:50;95870.22;;;17.92;88.99
8501;BME280;4288;48.484;10.024;2022-10-16T12:06:31;95876.38;;;17.93;89.19
8501;BME280;4288;48.484;10.024;2022-10-16T12:09:03;95877.91;;;17.94;89.25
8501;BME280;4288;48.484;10.024;2022-10-16T12:11:36;95868.59;;;17.95;89.01
8501;BME280;4288;48.484;10.024;2022-10-16T12:14:18;95869.38;;;17.95;89.10
8501;BME280;4288;48.484;10.024;2022-10-16T12:16:54;95869.03;;;17.93;89.29
8501;BME280;4288;48.484;10.024;2022-10-16T12:19:24;95869.72;;;17.97;89.54
8501;BME280;4288;48.484;10.024;2022-10-16T12:21:56;95868.94;;;17.97;89.58
8501;BME280;4288;48.484;10.024;2022-10-16T12:24:34;95862.03;;;17.96;89.76
8501;BME280;4288;48.484;10.024;2022-10-16T12:27:04;95866.66;;;17.95;89.58
8501;BME280;4288;48.484;10.024;2022-10-16T12:29:36;95876.66;;;17.98;89.88
8501;BME280;4288;48.484;10.024;2022-10-16T12:32:06;95867.78;;;17.98;90.09
8501;BME280;4288;48.484;10.024;2022-10-16T12:34:48;95873.13;;;18.01;90.16
8501;BME280;4288;48.484;10.024;2022-10-16T12:37:22;95870.41;;;18.01;89.99
8501;BME280;4288;48.484;10.024;2022-10-16T12:39:52;95865.78;;;18.02;90.08
8501;BME280;4288;48.484;10.024;2022-10-16T12:42:32;95865.84;;;17.98;90.06
8501;BME280;4288;48.484;10.024;2022-10-16T12:45:01;95860.78;;;18.00;90.42
8501;BME280;4288;48.484;10.024;2022-10-16T12:47:48;95863.06;;;18.02;90.12
8501;BME280;4288;48.484;10.024;2022-10-16T12:50:30;95866.13;;;18.04;90.28
8501;BME280;4288;48.484;10.024;2022-10-16T12:52:58;95871.09;;;18.05;90.53
8501;BME280;4288;48.484;10.024;2022-10-16T12:55:42;95862.63;;;18.03;90.57
8501;BME280;4288;48.484;10.024;2022-10-16T12:58:35;95869.91;;;18.06;90.80
8501;BME280;4288;48.484;10.024;2022-10-16T13:01:13;95879.13;;;18.09;90.69
8501;BME280;4288;48.484;10.024;2022-10-16T13:04:10;95870.25;;;18.08;90.75
8501;BME280;4288;48.484;10.024;2022-10-16T13:06:48;95876.44;;;18.09;91.02
8501;BME280;4288;48.484;10.024;2022-10-16T13:09:31;95878.34;;;18.08;91.35
8501;BME280;4288;48.484;10.024;2022-10-16T13:12:19;95873.72;;;18.09;90.82
8501;BME280;4288;48.484;10.024;2022-10-16T13:15:12;95875.25;;;18.10;91.08
8501;BME280;4288;48.484;10.024;2022-10-16T13:17:53;95880.25;;;18.11;91.08
8501;BME280;4288;48.484;10.024;2022-10-16T13:20:31;95874.50;;;18.09;91.42
8501;BME280;4288;48.484;10.024;2022-10-16T13:23:11;95878.31;;;18.12;91.49
8501;BME280;4288;48.484;10.024;2022-10-16T13:25:53;95886.78;;;18.14;91.28
8501;BME280;4288;48.484;10.024;2022-10-16T13:28:31;95875.19;;;18.13;91.33
8501;BME280;4288;48.484;10.024;2022-10-16T13:31:00;95882.09;;;18.14;91.61
8501;BME280;4288;48.484;10.024;2022-10-16T13:33:33;95874.84;;;18.11;91.59
8501;BME280;4288;48.484;10.024;2022-10-16T13:36:02;95879.81;;;18.13;91.54
8501;BME280;4288;48.484;10.024;2022-10-16T13:38:31;95886.00;;;18.13;91.52
8501;BME280;4288;48.484;10.024;2022-10-16T13:41:00;95881.34;;;18.14;91.53